Time;durP1;ratioP1;P1;durP2;ratioP2;P2;SDS_P1;SDS_P2;PMS_P1;PMS_P2;Temp;Humidity;BMP_temperature;BMP_pressure;BME280_temperature;BME280_humidity;BME280_pressure;Samples;Min_cycle;Max_cycle;Signal;HPM_P1;HPM_P2
2022/05/15 00:02:48;;;;;;;22.10;9.30;;;16.30;99.90;;;;;;5051732;28;20519;-71
2022/05/15 00:05:55;;;;;;;18.33;8.90;;;16.30;99.90;;;;;;5051354;28;20036;-71
2022/05/15 00:08:59;;;;;;;15.05;8.45;;;16.30;99.90;;;;;;5051530;28;20089;-71
2022/05/15 00:12:05;;;;;;;19.23;7.70;;;16.30;99.90;;;;;;5051624;28;20052;-70
2022/05/15 00:15:09;;;;;;;16.33;7.82;;;16.30;99.90;;;;;;5051522;28;20068;-71
2022/05/15 00:18:13;;;;;;;13.68;7.88;;;16.30;99.90;;;;;;5051020;28;20047;-71
2022/05/15 00:21:18;;;;;;;13.48;8.25;;;16.30;99.90;;;;;;5051114;28;20055;-71
2022/05/15 00:24:22;;;;;;;14.27;8.15;;;16.30;99.90;;;;;;5051232;28;20040;-71
2022/05/15 00:27:26;;;;;;;14.10;8.55;;;16.30;99.90;;;;;;5051028;28;20494;-71
2022/05/15 00:30:32;;;;;;;15.80;8.30;;;16.20;99.90;;;;;;5051028;28;20052;-71
2022/05/15 00:33:36;;;;;;;12.55;8.07;;;16.20;99.90;;;;;;5051168;28;20059;-71
2022/05/15 00:36:40;;;;;;;18.67;8.50;;;16.20;99.90;;;;;;5051216;28;20048;-71
2022/05/15 00:39:46;;;;;;;21.63;9.40;;;16.20;99.90;;;;;;5050394;28;20055;-71
2022/05/15 00:42:51;;;;;;;23.70;9.43;;;16.10;99.90;;;;;;5050908;28;20419;-71
2022/05/15 00:45:57;;;;;;;17.20;8.93;;;16.10;99.90;;;;;;5050920;28;20040;-71
2022/05/15 00:49:04;;;;;;;17.05;8.43;;;16.10;99.90;;;;;;5038449;28;20044;-71
2022/05/15 00:52:12;;;;;;;18.75;8.20;;;16.10;99.90;;;;;;5038314;28;20072;-71
2022/05/15 00:55:42;;;;;;;19.77;8.20;;;16.00;99.90;;;;;;5050893;28;20060;-71
2022/05/15 00:58:52;;;;;;;16.77;8.05;;;16.00;99.90;;;;;;5049524;28;20048;-71
2022/05/15 01:01:56;;;;;;;16.52;8.48;;;16.00;99.90;;;;;;5037695;28;20044;-70
2022/05/15 01:05:01;;;;;;;14.68;8.25;;;15.90;99.90;;;;;;5038616;28;20036;-71
2022/05/15 01:08:07;;;;;;;16.20;8.35;;;15.70;99.90;;;;;;5050162;28;20045;-70
2022/05/15 01:11:15;;;;;;;13.05;8.02;;;15.70;99.90;;;;;;5049720;28;20040;-71
2022/05/15 01:14:19;;;;;;;18.90;9.07;;;15.60;99.90;;;;;;5050618;28;20506;-71
2022/05/15 01:17:26;;;;;;;20.35;8.88;;;15.50;99.90;;;;;;5050340;28;20071;-71
2022/05/15 01:20:32;;;;;;;21.67;8.48;;;15.50;99.90;;;;;;5040803;28;20060;-71
2022/05/15 01:23:36;;;;;;;15.45;9.05;;;15.40;99.90;;;;;;5052106;28;20388;-70
2022/05/15 01:26:40;;;;;;;17.73;9.25;;;15.40;99.90;;;;;;5053005;28;20048;-71
2022/05/15 01:29:50;;;;;;;19.63;9.05;;;15.40;99.90;;;;;;5052281;28;20052;-71
2022/05/15 01:32:56;;;;;;;23.77;9.23;;;15.30;99.90;;;;;;5040700;28;20052;-71
2022/05/15 01:36:03;;;;;;;19.90;9.82;;;15.30;99.90;;;;;;5040329;28;20044;-71
2022/05/15 01:39:09;;;;;;;17.30;8.73;;;15.30;99.90;;;;;;5051983;28;20044;-71
2022/05/15 01:42:13;;;;;;;15.85;9.43;;;15.30;99.90;;;;;;5053003;28;20048;-71
2022/05/15 01:45:18;;;;;;;21.42;9.10;;;15.30;99.90;;;;;;5053081;28;20067;-71
2022/05/15 01:48:23;;;;;;;17.73;9.43;;;15.40;99.90;;;;;;5040366;28;20036;-70
2022/05/15 01:51:27;;;;;;;22.05;9.38;;;15.40;99.90;;;;;;5052796;28;20048;-71
2022/05/15 01:54:32;;;;;;;25.08;9.98;;;15.40;99.90;;;;;;5053032;28;20063;-71
2022/05/15 01:57:37;;;;;;;15.23;8.80;;;15.50;99.90;;;;;;5051663;28;20059;-71
2022/05/15 02:00:41;;;;;;;19.85;9.40;;;15.50;99.90;;;;;;5052412;28;20396;-71
2022/05/15 02:03:45;;;;;;;16.00;8.63;;;15.50;99.90;;;;;;5051477;28;20391;-70
2022/05/15 02:06:50;;;;;;;18.95;8.43;;;15.50;99.90;;;;;;5039834;28;20056;-70
2022/05/15 02:09:54;;;;;;;15.07;7.90;;;15.50;99.90;;;;;;5040032;28;20403;-71
2022/05/15 02:12:59;;;;;;;14.50;7.30;;;15.50;99.90;;;;;;5039765;28;20040;-71
2022/05/15 02:16:04;;;;;;;16.50;7.80;;;15.40;99.90;;;;;;5051984;28;20048;-71
2022/05/15 02:19:08;;;;;;;12.17;7.83;;;15.40;99.90;;;;;;4997457;28;1591586;-71
2022/05/15 02:22:13;;;;;;;18.02;8.75;;;15.30;99.90;;;;;;5040291;28;20048;-71
2022/05/15 02:25:17;;;;;;;16.30;9.07;;;15.30;99.90;;;;;;5052381;28;20056;-71
2022/05/15 02:28:22;;;;;;;15.32;8.60;;;15.20;99.90;;;;;;5041011;28;20040;-71
2022/05/15 02:31:26;;;;;;;18.80;8.80;;;15.10;99.90;;;;;;5040561;28;20044;-71
2022/05/15 02:34:30;;;;;;;16.17;8.50;;;15.00;99.90;;;;;;5053167;28;20055;-71
2022/05/15 02:37:35;;;;;;;18.65;8.68;;;14.90;99.90;;;;;;5040607;28;20052;-71
2022/05/15 02:40:39;;;;;;;14.02;7.80;;;14.80;99.90;;;;;;5052211;28;20048;-71
2022/05/15 02:43:43;;;;;;;15.23;8.35;;;14.60;99.90;;;;;;5053144;28;20384;-70
2022/05/15 02:46:47;;;;;;;16.48;8.65;;;14.40;99.90;;;;;;5040423;28;20052;-71
2022/05/15 02:53:14;;;;;;;;;;;14.00;99.90;;;;;;5041433;28;20044;-70
2022/05/15 02:56:25;;;;;;;25.95;11.30;;;13.90;99.90;;;;;;5040310;28;19913;-71
2022/05/15 02:59:29;;;;;;;21.05;10.85;;;13.80;99.90;;;;;;5052837;28;20036;-70
2022/05/15 03:02:33;;;;;;;17.23;11.18;;;13.70;99.90;;;;;;5052293;28;20050;-70
2022/05/15 03:05:37;;;;;;;25.55;12.25;;;13.60;99.90;;;;;;5040373;28;20066;-70
2022/05/15 03:08:46;;;;;;;27.92;14.23;;;13.60;99.90;;;;;;5040316;28;20506;-71
2022/05/15 03:11:50;;;;;;;27.60;14.88;;;13.60;99.90;;;;;;5052511;28;20060;-71
2022/05/15 03:14:54;;;;;;;25.40;13.43;;;13.60;99.90;;;;;;5052410;28;20047;-71
2022/05/15 03:17:58;;;;;;;30.35;12.80;;;13.60;99.90;;;;;;5051788;28;20048;-71
2022/05/15 03:21:02;;;;;;;23.95;13.90;;;13.60;99.90;;;;;;5039737;28;20052;-71
2022/05/15 03:24:10;;;;;;;21.50;13.15;;;13.60;99.90;;;;;;5039551;28;20056;-71
2022/05/15 03:27:14;;;;;;;26.40;12.73;;;13.60;99.90;;;;;;5051798;28;20056;-71
2022/05/15 03:30:18;;;;;;;22.33;12.55;;;13.50;99.90;;;;;;5039742;28;20581;-71
2022/05/15 03:33:22;;;;;;;22.90;13.00;;;13.40;99.90;;;;;;5051850;28;20044;-71
2022/05/15 03:36:27;;;;;;;26.38;12.82;;;13.30;99.90;;;;;;5050685;28;20063;-71
2022/05/15 03:39:31;;;;;;;26.10;13.77;;;13.20;99.90;;;;;;5039678;28;20048;-71
2022/05/15 03:42:35;;;;;;;21.70;14.25;;;13.10;99.90;;;;;;5051362;28;20048;-70
2022/05/15 03:45:39;;;;;;;20.08;12.93;;;13.20;99.90;;;;;;5051919;28;20040;-71
2022/05/15 03:48:43;;;;;;;32.47;15.25;;;13.10;99.90;;;;;;5051724;28;20044;-71
2022/05/15 03:51:48;;;;;;;31.60;17.45;;;13.20;99.90;;;;;;5052176;28;20391;-71
2022/05/15 03:54:52;;;;;;;27.52;15.10;;;13.20;99.90;;;;;;5051531;28;20388;-71
2022/05/15 03:57:56;;;;;;;31.38;17.48;;;13.30;99.90;;;;;;5039391;28;20064;-71
2022/05/15 04:01:03;;;;;;;35.17;17.45;;;13.40;99.90;;;;;;5050509;28;20503;-71
2022/05/15 04:04:08;;;;;;;32.53;16.63;;;13.40;99.90;;;;;;5051506;28;20055;-71
2022/05/15 04:07:12;;;;;;;30.73;16.63;;;13.40;99.90;;;;;;5038944;28;20048;-71
2022/05/15 04:10:20;;;;;;;34.58;17.67;;;13.40;99.90;;;;;;5051615;28;20040;-71
2022/05/15 04:13:24;;;;;;;35.33;19.63;;;13.30;99.90;;;;;;5051454;28;20047;-71
2022/05/15 04:16:28;;;;;;;35.60;19.55;;;13.30;99.90;;;;;;5038520;28;20028;-71
2022/05/15 04:19:35;;;;;;;30.70;20.17;;;13.20;99.90;;;;;;5038960;28;20396;-71
2022/05/15 04:22:40;;;;;;;35.67;19.75;;;13.20;99.90;;;;;;5038501;28;20051;-71
2022/05/15 04:25:45;;;;;;;33.50;17.50;;;13.20;99.90;;;;;;5051171;28;20048;-71
2022/05/15 04:28:50;;;;;;;38.25;18.30;;;13.20;99.90;;;;;;5050526;28;20387;-71
2022/05/15 04:31:57;;;;;;;27.73;16.67;;;13.30;99.90;;;;;;5050802;28;20059;-71
2022/05/15 04:35:03;;;;;;;30.23;17.17;;;13.40;99.90;;;;;;5039082;28;20511;-71
2022/05/15 04:38:08;;;;;;;32.63;17.55;;;13.50;99.90;;;;;;5050657;28;20044;-71
2022/05/15 04:41:12;;;;;;;27.83;15.25;;;13.60;99.90;;;;;;5051131;28;20522;-71
2022/05/15 04:44:16;;;;;;;27.75;15.40;;;13.80;99.90;;;;;;5050537;28;20056;-71
2022/05/15 04:47:21;;;;;;;25.35;12.93;;;15.20;99.90;;;;;;5038305;28;20047;-71
2022/05/15 04:50:25;;;;;;;20.23;12.57;;;17.40;99.90;;;;;;5050760;28;20036;-71
2022/05/15 04:53:30;;;;;;;21.63;11.98;;;19.10;99.90;;;;;;5049413;28;20068;-71
2022/05/15 04:56:35;;;;;;;17.00;10.77;;;20.30;99.90;;;;;;5050313;28;20036;-71
2022/05/15 04:59:39;;;;;;;16.70;9.75;;;21.30;99.90;;;;;;5050521;28;20036;-71
2022/05/15 05:02:43;;;;;;;19.88;11.77;;;22.10;99.90;;;;;;5050467;28;20048;-71
2022/05/15 05:05:47;;;;;;;20.02;11.88;;;21.30;99.90;;;;;;5050466;28;20503;-71
2022/05/15 05:08:51;;;;;;;21.60;12.40;;;20.60;99.90;;;;;;5050692;28;20040;-71
2022/05/15 05:11:55;;;;;;;21.38;11.15;;;20.50;99.90;;;;;;5050716;28;20415;-71
2022/05/15 05:14:59;;;;;;;16.38;10.20;;;20.00;99.90;;;;;;5050524;28;20047;-71
2022/05/15 05:18:03;;;;;;;17.88;10.75;;;20.80;99.90;;;;;;5050093;28;20044;-71
2022/05/15 05:21:07;;;;;;;21.45;10.45;;;22.10;99.90;;;;;;5050445;28;20056;-71
2022/05/15 05:24:11;;;;;;;16.80;9.00;;;22.20;99.90;;;;;;5050327;28;20056;-71
2022/05/15 05:27:16;;;;;;;16.80;8.27;;;23.20;99.90;;;;;;5050739;28;20040;-71
2022/05/15 05:30:23;;;;;;;14.82;6.95;;;23.70;99.90;;;;;;5050638;28;20041;-71
2022/05/15 05:33:27;;;;;;;13.85;8.15;;;24.40;99.90;;;;;;5050785;28;20055;-71
2022/05/15 05:36:31;;;;;;;16.58;7.68;;;24.30;99.90;;;;;;5050402;28;20064;-71
2022/05/15 05:39:34;;;;;;;14.02;7.30;;;24.30;99.90;;;;;;5050353;28;20391;-71
2022/05/15 05:42:39;;;;;;;17.08;6.85;;;24.60;99.90;;;;;;5050197;28;20060;-72
2022/05/15 05:45:43;;;;;;;11.98;7.65;;;25.30;99.90;;;;;;5050605;28;20048;-71
2022/05/15 05:48:48;;;;;;;17.40;7.65;;;25.40;99.90;;;;;;5049961;28;20046;-71
2022/05/15 05:51:52;;;;;;;14.20;6.72;;;26.30;99.90;;;;;;5050264;28;20056;-71
2022/05/15 05:54:56;;;;;;;12.40;5.78;;;26.90;99.90;;;;;;5050428;28;20039;-71
2022/05/15 05:58:00;;;;;;;18.80;6.93;;;27.10;99.90;;;;;;5050050;28;20036;-71
2022/05/15 06:01:04;;;;;;;18.77;6.50;;;27.60;99.90;;;;;;5049959;28;20052;-71
2022/05/15 06:07:33;;;;;;;14.27;6.68;;;25.80;99.90;;;;;;5053467;28;20048;-71
2022/05/15 06:10:38;;;;;;;16.60;6.38;;;25.40;99.90;;;;;;5053459;28;20044;-71
2022/05/15 06:13:41;;;;;;;13.57;6.40;;;23.80;99.90;;;;;;5053671;28;20502;-71
2022/05/15 06:16:46;;;;;;;13.82;6.53;;;23.50;99.90;;;;;;5053027;28;20048;-70
2022/05/15 06:19:52;;;;;;;9.88;6.07;;;22.70;99.90;;;;;;5053358;28;20044;-71
2022/05/15 06:22:56;;;;;;;13.43;6.82;;;23.40;99.90;;;;;;5052905;28;20399;-71
2022/05/15 06:26:00;;;;;;;13.75;5.95;;;23.40;99.90;;;;;;5053246;28;20052;-71
2022/05/15 06:29:04;;;;;;;15.75;5.68;;;24.80;99.90;;;;;;5053286;28;20044;-71
2022/05/15 06:32:10;;;;;;;10.85;5.28;;;25.20;99.90;;;;;;5053313;28;20048;-72
2022/05/15 06:35:15;;;;;;;19.50;6.25;;;25.70;99.90;;;;;;5053008;28;20048;-71
2022/05/15 06:38:20;;;;;;;11.80;5.95;;;25.80;99.50;;;;;;5053165;28;20044;-72
2022/05/15 06:41:24;;;;;;;17.38;6.18;;;25.30;99.90;;;;;;5052837;28;20051;-72
2022/05/15 06:44:28;;;;;;;14.30;6.10;;;24.60;99.90;;;;;;5052753;28;20036;-72
2022/05/15 06:47:33;;;;;;;10.82;5.93;;;24.90;99.90;;;;;;5040396;28;20024;-72
2022/05/15 06:50:37;;;;;;;10.90;5.30;;;24.30;99.90;;;;;;5052596;28;20056;-71
2022/05/15 06:53:46;;;;;;;11.77;5.30;;;25.40;99.90;;;;;;5052732;28;20048;-71
2022/05/15 07:00:20;;;;;;;14.27;5.97;;;26.60;99.20;;;;;;5052485;28;20396;-72
2022/05/15 07:03:24;;;;;;;18.77;7.22;;;26.10;99.40;;;;;;5052816;28;20052;-71
2022/05/15 07:06:30;;;;;;;16.05;6.22;;;25.20;99.50;;;;;;5051881;28;20036;-72
2022/05/15 07:09:34;;;;;;;11.90;7.60;;;27.10;99.00;;;;;;5052000;28;20503;-72
2022/05/15 07:12:38;;;;;;;15.02;7.63;;;27.70;98.00;;;;;;5052328;28;20056;-72
2022/05/15 07:15:42;;;;;;;14.90;7.45;;;27.80;97.10;;;;;;5051416;28;20052;-72
2022/05/15 07:18:46;;;;;;;13.50;7.63;;;27.40;98.00;;;;;;5052284;28;20055;-72
2022/05/15 07:21:51;;;;;;;17.38;8.18;;;25.30;99.70;;;;;;5052189;28;20431;-72
2022/05/15 07:24:55;;;;;;;19.88;8.27;;;25.40;99.90;;;;;;5052258;28;20482;-72
2022/05/15 07:27:59;;;;;;;11.25;5.55;;;25.80;99.40;;;;;;5052085;28;20048;-72
2022/05/15 07:31:04;;;;;;;17.23;6.05;;;27.80;98.70;;;;;;5051717;28;20032;-72
2022/05/15 07:34:08;;;;;;;12.18;7.28;;;28.00;97.80;;;;;;5051983;28;20048;-73
2022/05/15 07:37:13;;;;;;;10.18;6.55;;;27.70;96.80;;;;;;5051902;28;20052;-72
2022/05/15 07:40:16;;;;;;;12.05;5.38;;;28.80;96.50;;;;;;5052005;28;20044;-72
2022/05/15 07:43:20;;;;;;;9.07;5.55;;;28.80;96.60;;;;;;5051900;28;20057;-71
2022/05/15 07:46:25;;;;;;;13.27;4.72;;;30.20;95.00;;;;;;5051464;28;20268;-72
2022/05/15 07:49:31;;;;;;;11.95;5.38;;;29.50;94.60;;;;;;5051686;28;20048;-71
2022/05/15 07:52:35;;;;;;;11.43;5.50;;;30.70;94.20;;;;;;5051664;28;20048;-72
2022/05/15 07:55:41;;;;;;;15.07;5.38;;;30.60;93.50;;;;;;5051860;28;20050;-72
2022/05/15 07:58:44;;;;;;;14.73;5.35;;;31.30;92.80;;;;;;5051526;28;20040;-73
2022/05/15 08:01:48;;;;;;;14.60;6.60;;;30.80;93.00;;;;;;5051355;28;20056;-72
2022/05/15 08:08:15;;;;;;;13.98;7.57;;;31.80;91.90;;;;;;5048949;28;20401;-73
2022/05/15 08:11:19;;;;;;;18.20;7.65;;;31.20;91.10;;;;;;5050765;28;20060;-72
2022/05/15 08:14:23;;;;;;;13.82;7.22;;;28.60;92.90;;;;;;5050656;28;20075;-72
2022/05/15 08:17:27;;;;;;;14.32;5.43;;;27.40;95.10;;;;;;5050303;28;20059;-71
2022/05/15 08:24:00;;;;;;;14.65;7.90;;;29.20;93.70;;;;;;5050452;28;20110;-72
2022/05/15 08:27:05;;;;;;;17.30;7.25;;;31.80;92.10;;;;;;5049871;28;20044;-71
2022/05/15 08:30:10;;;;;;;12.35;7.05;;;33.20;91.30;;;;;;5050186;28;20040;-73
2022/05/15 08:33:13;;;;;;;9.95;5.22;;;34.40;90.00;;;;;;5050052;28;20264;-72
2022/05/15 08:36:18;;;;;;;10.05;4.22;;;32.90;89.50;;;;;;5050056;28;20335;-72
2022/05/15 08:39:22;;;;;;;8.82;3.65;;;33.70;88.40;;;;;;5050448;28;20051;-73
2022/05/15 08:42:50;;;;;;;11.73;4.75;;;33.00;89.10;;;;;;5050046;28;20064;-72
2022/05/15 08:46:06;;;;;;;6.95;4.43;;;31.30;88.60;;;;;;5037571;28;20467;-72
2022/05/15 08:49:17;;;;;;;10.38;4.88;;;32.80;89.80;;;;;;5050362;28;20039;-72
2022/05/15 08:52:28;;;;;;;9.40;4.65;;;32.20;90.10;;;;;;5050145;28;20051;-72
2022/05/15 08:55:43;;;;;;;10.10;4.60;;;32.00;90.50;;;;;;5047127;28;20510;-72
2022/05/15 08:58:50;;;;;;;15.10;5.22;;;32.20;89.10;;;;;;5049961;28;20543;-72
2022/05/15 09:01:58;;;;;;;9.63;4.63;;;33.60;88.10;;;;;;5049739;28;20040;-72
2022/05/15 09:05:04;;;;;;;8.05;4.80;;;35.00;84.60;;;;;;5050443;28;20052;-72
2022/05/15 09:08:42;;;;;;;14.23;5.70;;;35.60;83.40;;;;;;5049655;28;20047;-72
2022/05/15 09:12:01;;;;;;;16.30;5.45;;;35.30;82.30;;;;;;5037657;28;20088;-71
2022/05/15 09:15:20;;;;;;;10.15;4.80;;;33.40;83.80;;;;;;5049856;28;20071;-72
2022/05/15 09:18:25;;;;;;;10.27;4.50;;;32.20;85.00;;;;;;5049570;28;20056;-72
2022/05/15 09:21:29;;;;;;;12.77;6.70;;;29.80;87.30;;;;;;5049888;28;20048;-72
2022/05/15 09:24:38;;;;;;;12.18;5.95;;;29.40;90.10;;;;;;5049845;28;20228;-72
2022/05/15 09:27:59;;;;;;;12.63;5.43;;;32.50;86.70;;;;;;5049304;28;20044;-72
2022/05/15 09:31:05;;;;;;;9.30;4.25;;;32.50;82.70;;;;;;5049832;28;20044;-72
2022/05/15 09:34:14;;;;;;;10.07;3.63;;;33.60;81.20;;;;;;5049839;28;20040;-72
2022/05/15 09:44:28;;;;;;;6.28;3.20;;;37.90;76.80;;;;;;5053136;28;20044;-73
2022/05/15 09:47:38;;;;;;;9.77;4.05;;;38.70;73.60;;;;;;5053052;28;20048;-72
2022/05/15 09:50:48;;;;;;;14.43;4.60;;;38.20;74.90;;;;;;5053141;28;20499;-72
2022/05/15 09:53:54;;;;;;;10.65;3.95;;;39.30;75.30;;;;;;5053174;28;20043;-73
2022/05/15 09:57:25;;;;;;;10.40;3.60;;;40.80;72.20;;;;;;5052897;28;20121;-73
2022/05/15 10:00:32;;;;;;;11.00;4.38;;;40.20;69.90;;;;;;5053096;28;20044;-73
2022/05/15 10:03:37;;;;;;;6.97;3.33;;;39.50;71.10;;;;;;5053000;28;20179;-72
2022/05/15 10:07:03;;;;;;;10.07;3.90;;;40.20;70.50;;;;;;5052421;28;20250;-72
2022/05/15 10:10:39;;;;;;;7.20;3.63;;;38.60;71.30;;;;;;5052736;28;20048;-72
2022/05/15 10:13:52;;;;;;;11.27;3.63;;;35.70;69.40;;;;;;5052713;28;20135;-72
2022/05/15 10:16:58;;;;;;;10.27;3.75;;;37.30;70.00;;;;;;5052464;28;20051;-72
2022/05/15 10:20:25;;;;;;;9.40;3.38;;;38.50;70.40;;;;;;5052672;28;20060;-72
2022/05/15 10:23:46;;;;;;;7.30;3.15;;;37.10;70.30;;;;;;5052344;28;20048;-72
2022/05/15 10:26:53;;;;;;;;;;;38.60;69.80;;;;;;5052828;28;20051;-72
2022/05/15 10:30:07;;;;;;;7.28;3.22;;;39.10;68.50;;;;;;5052470;28;19916;-72
2022/05/15 10:33:18;;;;;;;11.18;3.10;;;40.10;67.40;;;;;;5052341;28;20506;-74
2022/05/15 10:36:27;;;;;;;7.15;3.00;;;40.40;66.50;;;;;;5052143;28;20530;-71
2022/05/15 10:39:56;;;;;;;10.00;3.30;;;38.20;67.80;;;;;;5052425;28;20514;-72
2022/05/15 10:43:17;;;;;;;8.48;3.08;;;38.50;68.50;;;;;;5052049;28;20044;-72
2022/05/15 10:46:43;;;;;;;7.78;3.30;;;38.80;68.30;;;;;;5051928;28;20072;-72
2022/05/15 10:50:04;;;;;;;10.07;3.08;;;35.20;68.70;;;;;;5052065;28;20048;-73
2022/05/15 11:00:20;;;;;;;8.43;3.20;;;33.40;74.00;;;;;;5052173;28;20051;-72
2022/05/15 11:03:36;;;;;;;10.40;3.53;;;35.30;73.40;;;;;;5051417;28;20502;-72
2022/05/15 11:07:00;;;;;;;8.02;3.75;;;37.20;72.00;;;;;;5051719;28;20047;-72
2022/05/15 11:10:26;;;;;;;5.28;3.17;;;37.80;70.50;;;;;;5051931;28;20048;-72
2022/05/15 11:13:57;;;;;;;9.25;3.97;;;38.80;70.60;;;;;;5051682;28;20052;-72
2022/05/15 11:17:10;;;;;;;5.22;3.05;;;39.40;70.70;;;;;;5051272;28;20060;-72
2022/05/15 11:20:25;;;;;;;9.65;3.70;;;39.60;70.80;;;;;;5051699;28;20079;-73
2022/05/15 11:23:53;;;;;;;8.23;3.47;;;39.90;71.50;;;;;;5050878;28;20040;-72
2022/05/15 11:27:06;;;;;;;8.00;3.30;;;40.30;69.70;;;;;;5051358;28;20052;-72
2022/05/15 11:30:24;;;;;;;11.13;3.55;;;40.60;70.50;;;;;;5051400;28;20044;-72
2022/05/15 11:33:43;;;;;;;9.30;4.05;;;37.50;70.50;;;;;;5051146;28;20040;-72
2022/05/15 11:36:49;;;;;;;8.52;3.47;;;37.70;73.30;;;;;;5050897;28;20056;-72
2022/05/15 11:39:59;;;;;;;7.05;3.40;;;38.00;71.90;;;;;;5051270;28;20043;-72
2022/05/15 11:43:31;;;;;;;8.93;3.30;;;38.70;72.50;;;;;;5051132;28;20239;-72
2022/05/15 11:46:47;;;;;;;7.05;3.45;;;39.40;72.30;;;;;;5051040;28;20384;-72
2022/05/15 11:50:05;;;;;;;8.80;3.47;;;39.70;71.20;;;;;;5051377;28;20036;-72
2022/05/15 11:53:12;;;;;;;11.85;3.50;;;38.30;70.80;;;;;;5038679;28;20055;-72
2022/05/15 11:56:25;;;;;;;11.75;3.88;;;38.30;71.00;;;;;;5050526;28;20064;-72
2022/05/15 11:59:30;;;;;;;11.90;3.55;;;39.20;71.80;;;;;;5038438;28;20395;-72
2022/05/15 12:02:34;;;;;;;12.10;3.65;;;39.70;68.30;;;;;;5050330;28;20048;-72
2022/05/15 12:06:03;;;;;;;8.63;3.25;;;40.20;66.90;;;;;;5038183;28;20044;-72
2022/05/15 12:09:17;;;;;;;9.07;3.25;;;40.20;68.20;;;;;;5050533;28;20052;-72
2022/05/15 12:12:22;;;;;;;8.80;3.40;;;40.00;68.50;;;;;;5050476;28;20040;-71
2022/05/15 12:15:37;;;;;;;6.13;3.33;;;39.70;68.50;;;;;;5050817;28;20060;-71
2022/05/15 12:18:43;;;;;;;12.60;3.90;;;39.50;68.40;;;;;;5050528;28;20048;-72
2022/05/15 12:21:52;;;;;;;11.07;3.70;;;37.70;68.10;;;;;;5050483;28;20056;-72
2022/05/15 12:25:07;;;;;;;9.50;3.67;;;37.90;70.10;;;;;;5050628;28;20072;-72
2022/05/15 12:28:51;;;;;;;6.95;3.78;;;38.00;69.10;;;;;;5049614;28;20048;-72
2022/05/15 12:31:56;;;;;;;8.35;3.55;;;38.50;69.00;;;;;;5049813;28;20040;-72
2022/05/15 12:35:00;;;;;;;11.48;4.07;;;37.90;69.80;;;;;;5049901;28;20112;-72
2022/05/15 12:38:09;;;;;;;11.65;3.75;;;37.60;70.70;;;;;;5049583;28;20044;-73
2022/05/15 12:41:25;;;;;;;7.45;4.05;;;37.30;70.90;;;;;;5049876;28;20040;-72
2022/05/15 12:44:33;;;;;;;10.23;3.72;;;32.80;74.80;;;;;;5049946;28;20056;-71
2022/05/15 12:47:38;;;;;;;13.68;4.75;;;34.60;74.50;;;;;;5049824;28;20051;-72
2022/05/15 12:51:06;;;;;;;8.63;3.90;;;35.80;73.20;;;;;;5049872;28;20032;-72
2022/05/15 12:54:28;;;;;;;6.82;3.80;;;34.70;72.90;;;;;;5050079;28;20044;-72
2022/05/15 12:57:46;;;;;;;9.45;4.05;;;35.60;74.90;;;;;;5049826;28;20052;-72
2022/05/15 13:00:49;;;;;;;12.57;4.38;;;36.10;74.10;;;;;;5049940;28;20039;-73
2022/05/15 13:03:59;;;;;;;10.35;3.70;;;35.70;73.50;;;;;;5049726;28;20116;-73
2022/05/15 13:07:07;;;;;;;12.43;4.65;;;35.20;72.20;;;;;;5049639;28;20502;-73
2022/05/15 13:10:20;;;;;;;13.43;4.15;;;33.10;73.10;;;;;;5049881;28;20044;-71
2022/05/15 13:13:30;;;;;;;11.50;4.15;;;33.60;75.30;;;;;;5050202;28;20044;-71
2022/05/15 13:16:39;;;;;;;8.80;5.07;;;34.90;73.00;;;;;;5053411;28;20155;-72
2022/05/15 13:19:46;;;;;;;14.02;4.15;;;34.20;73.90;;;;;;5054089;28;20056;-71
2022/05/15 13:22:51;;;;;;;7.18;3.60;;;33.70;75.50;;;;;;5053810;28;20503;-72
2022/05/15 13:25:57;;;;;;;8.55;3.42;;;34.30;74.10;;;;;;5053874;28;20083;-71
2022/05/15 13:29:02;;;;;;;8.20;4.03;;;34.80;73.40;;;;;;5053465;28;20044;-72
2022/05/15 13:32:09;;;;;;;7.78;3.50;;;33.30;75.60;;;;;;5053901;28;20091;-71
2022/05/15 13:35:16;;;;;;;7.93;3.80;;;33.80;75.30;;;;;;5053573;28;20036;-72
2022/05/15 13:38:31;;;;;;;14.23;4.10;;;34.30;73.90;;;;;;5053256;28;20064;-72
2022/05/15 13:45:10;;;;;;;8.85;4.07;;;31.80;73.40;;;;;;5053083;28;20056;-71
2022/05/15 13:48:14;;;;;;;8.38;3.40;;;31.70;76.30;;;;;;5052919;28;20048;-71
2022/05/15 13:51:47;;;;;;;9.70;3.83;;;32.60;74.10;;;;;;5053252;28;20499;-71
2022/05/15 13:54:51;;;;;;;7.28;2.95;;;33.00;74.30;;;;;;5053234;28;20048;-73
2022/05/15 13:57:57;;;;;;;8.68;3.15;;;31.70;70.70;;;;;;5052467;28;20063;-72
2022/05/15 14:01:07;;;;;;;9.55;3.85;;;31.30;73.20;;;;;;5052607;28;20036;-73
2022/05/15 14:04:27;;;;;;;10.55;4.03;;;29.80;72.50;;;;;;5052759;28;20044;-72
2022/05/15 14:07:33;;;;;;;7.80;3.30;;;28.80;74.50;;;;;;5052454;28;20038;-71
2022/05/15 14:10:38;;;;;;;7.65;3.38;;;29.70;74.60;;;;;;5051231;28;20044;-71
2022/05/15 14:13:50;;;;;;;14.43;3.35;;;30.30;75.70;;;;;;5052899;28;20056;-73
2022/05/15 14:17:05;;;;;;;12.48;3.97;;;30.40;75.40;;;;;;5052394;28;20048;-72
2022/05/15 14:20:10;;;;;;;12.52;3.95;;;30.10;77.60;;;;;;5052652;28;20055;-74
2022/05/15 14:23:15;;;;;;;12.30;4.20;;;30.60;74.90;;;;;;5052297;28;20044;-71
2022/05/15 14:26:20;;;;;;;7.47;3.42;;;30.70;76.00;;;;;;5052120;28;20052;-71
2022/05/15 14:29:25;;;;;;;12.70;3.70;;;30.70;76.30;;;;;;5052942;28;20040;-73
2022/05/15 14:32:32;;;;;;;7.53;3.08;;;30.80;77.00;;;;;;5052806;28;20068;-72
2022/05/15 14:35:44;;;;;;;8.07;3.20;;;30.70;76.90;;;;;;5040282;28;20055;-72
2022/05/15 14:38:49;;;;;;;7.00;3.33;;;30.50;77.70;;;;;;5052701;28;20048;-73
2022/05/15 14:41:53;;;;;;;9.05;3.33;;;30.40;79.00;;;;;;5052898;28;20044;-72
2022/05/15 14:44:58;;;;;;;13.63;3.88;;;29.90;78.30;;;;;;5052372;28;20044;-72
2022/05/15 14:48:05;;;;;;;12.45;4.13;;;30.00;80.90;;;;;;5039554;28;20162;-72
2022/05/15 14:51:14;;;;;;;9.85;4.00;;;29.80;80.50;;;;;;5052172;28;20040;-72
2022/05/15 14:54:21;;;;;;;5.60;3.38;;;29.70;80.50;;;;;;5052308;28;20396;-72
2022/05/15 14:57:24;;;;;;;10.02;4.13;;;29.70;79.80;;;;;;5051366;28;20048;-72
2022/05/15 15:00:31;;;;;;;8.63;3.75;;;29.30;79.80;;;;;;5052006;28;20051;-72
2022/05/15 15:03:36;;;;;;;8.23;3.50;;;29.60;81.80;;;;;;5051523;28;20044;-72
2022/05/15 15:06:40;;;;;;;12.20;4.43;;;29.80;79.00;;;;;;5051107;28;20056;-72
2022/05/15 15:09:45;;;;;;;11.00;3.88;;;29.80;80.70;;;;;;5051506;28;20044;-71
2022/05/15 15:12:49;;;;;;;9.57;3.78;;;29.90;79.70;;;;;;5051551;28;20051;-72
2022/05/15 15:15:54;;;;;;;6.57;3.63;;;29.80;79.40;;;;;;5051792;28;20047;-72
2022/05/15 15:18:58;;;;;;;9.98;3.80;;;29.70;79.40;;;;;;5051210;28;20103;-72
2022/05/15 15:22:02;;;;;;;12.63;4.80;;;29.70;80.60;;;;;;5039091;28;20048;-71
2022/05/15 15:25:06;;;;;;;7.75;4.03;;;29.70;81.20;;;;;;5051253;28;20036;-72
2022/05/15 15:28:12;;;;;;;8.45;4.30;;;29.60;82.00;;;;;;5051092;28;20047;-70
2022/05/15 15:31:17;;;;;;;9.65;4.70;;;29.40;84.10;;;;;;5051562;28;20051;-71
2022/05/15 15:34:21;;;;;;;10.02;4.18;;;29.30;84.40;;;;;;5051438;28;20863;-72
2022/05/15 15:40:51;;;;;;;14.40;4.93;;;29.10;83.20;;;;;;5051052;28;20056;-72
2022/05/15 15:43:57;;;;;;;12.48;5.10;;;28.80;84.20;;;;;;5050932;28;20531;-71
2022/05/15 15:47:01;;;;;;;18.95;4.80;;;28.70;84.40;;;;;;5049433;28;20376;-71
2022/05/15 15:50:07;;;;;;;8.90;4.22;;;28.60;85.00;;;;;;5038868;28;20060;-71
2022/05/15 15:53:13;;;;;;;13.35;4.47;;;28.40;84.90;;;;;;5050993;28;20049;-70
2022/05/15 15:56:18;;;;;;;12.35;4.30;;;28.30;84.40;;;;;;5050598;28;20052;-71
2022/05/15 15:59:22;;;;;;;7.38;3.75;;;28.30;84.50;;;;;;5050732;28;20048;-71
2022/05/15 16:02:26;;;;;;;8.93;4.57;;;28.20;84.60;;;;;;5050713;28;20052;-71
2022/05/15 16:05:33;;;;;;;14.68;4.55;;;28.00;84.10;;;;;;5050299;28;20395;-71
2022/05/15 16:08:38;;;;;;;8.93;4.60;;;27.80;84.70;;;;;;5050572;28;20499;-72
2022/05/15 16:11:45;;;;;;;11.85;3.90;;;27.80;85.20;;;;;;5050383;28;20044;-70
2022/05/15 16:14:49;;;;;;;12.32;4.65;;;27.70;84.60;;;;;;5050443;28;20052;-72
2022/05/15 16:17:54;;;;;;;12.35;4.38;;;27.60;85.20;;;;;;5049745;28;20047;-71
2022/05/15 16:21:05;;;;;;;11.07;4.53;;;27.40;85.60;;;;;;5038121;28;20106;-72
2022/05/15 16:24:10;;;;;;;11.57;4.20;;;27.40;85.90;;;;;;5037608;28;20074;-70
2022/05/15 16:27:19;;;;;;;10.65;4.75;;;27.30;85.00;;;;;;5049827;28;20039;-70
2022/05/15 16:30:23;;;;;;;8.30;4.10;;;27.20;86.10;;;;;;5038143;28;20051;-71
2022/05/15 16:33:34;;;;;;;7.55;3.97;;;27.10;86.50;;;;;;5050347;28;20048;-72
2022/05/15 16:36:38;;;;;;;11.10;4.38;;;27.10;85.60;;;;;;5037091;28;20048;-71
2022/05/15 16:39:42;;;;;;;14.07;4.07;;;26.90;85.60;;;;;;5050087;28;20602;-72
2022/05/15 16:42:48;;;;;;;13.18;3.70;;;26.80;86.40;;;;;;5050121;28;20051;-71
2022/05/15 16:45:52;;;;;;;8.80;3.97;;;26.80;86.40;;;;;;5050059;28;20379;-70